sensor_id;sensor_type;location;lat;lon;timestamp;pressure;altitude;pressure_sealevel;temperature;humidity
60820;BME280;46641;48.904;9.126;2023-01-15T00:02:11;97374.03;;;13.80;64.05
60820;BME280;46641;48.904;9.126;2023-01-15T00:07:05;97364.97;;;13.83;64.07
60820;BME280;46641;48.904;9.126;2023-01-15T00:11:55;97354.44;;;13.83;64.01
60820;BME280;46641;48.904;9.126;2023-01-15T00:16:49;97342.47;;;13.80;64.25
60820;BME280;46641;48.904;9.126;2023-01-15T00:21:40;97346.53;;;13.83;64.22
60820;BME280;46641;48.904;9.126;2023-01-15T00:26:31;97336.41;;;13.80;64.32
60820;BME280;46641;48.904;9.126;2023-01-15T00:31:41;97320.25;;;13.83;64.27
60820;BME280;46641;48.904;9.126;2023-01-15T00:36:32;97329.34;;;13.87;64.14
60820;BME280;46641;48.904;9.126;2023-01-15T00:41:23;97318.03;;;13.87;64.15
60820;BME280;46641;48.904;9.126;2023-01-15T00:46:13;97305.69;;;13.87;63.95
60820;BME280;46641;48.904;9.126;2023-01-15T00:51:04;97310.38;;;13.92;63.99
60820;BME280;46641;48.904;9.126;2023-01-15T00:55:54;97288.13;;;13.94;63.83
60820;BME280;46641;48.904;9.126;2023-01-15T01:00:45;97281.84;;;13.95;64.05
60820;BME280;46641;48.904;9.126;2023-01-15T01:05:35;97281.63;;;13.97;64.02
60820;BME280;46641;48.904;9.126;2023-01-15T01:10:26;97285.91;;;13.98;63.95
60820;BME280;46641;48.904;9.126;2023-01-15T01:15:20;97287.91;;;13.96;63.95
60820;BME280;46641;48.904;9.126;2023-01-15T01:20:15;97272.53;;;13.99;64.15
60820;BME280;46641;48.904;9.126;2023-01-15T01:25:07;97269.91;;;13.99;63.84
60820;BME280;46641;48.904;9.126;2023-01-15T01:29:57;97275.78;;;14.01;63.55
60820;BME280;46641;48.904;9.126;2023-01-15T01:34:48;97272.56;;;14.06;64.00
60820;BME280;46641;48.904;9.126;2023-01-15T01:39:38;97256.34;;;14.02;63.63
60820;BME280;46641;48.904;9.126;2023-01-15T01:49:22;97255.56;;;14.02;63.91
60820;BME280;46641;48.904;9.126;2023-01-15T01:54:16;97249.09;;;14.05;63.73
60820;BME280;46641;48.904;9.126;2023-01-15T01:59:10;97232.50;;;14.04;64.06
60820;BME280;46641;48.904;9.126;2023-01-15T02:04:02;97219.53;;;14.02;63.76
60820;BME280;46641;48.904;9.126;2023-01-15T02:08:55;97230.28;;;14.08;63.77
60820;BME280;46641;48.904;9.126;2023-01-15T02:14:09;97219.94;;;14.06;63.68
60820;BME280;46641;48.904;9.126;2023-01-15T02:24:17;97199.28;;;14.10;63.83
60820;BME280;46641;48.904;9.126;2023-01-15T02:29:16;97205.34;;;14.10;63.70
60820;BME280;46641;48.904;9.126;2023-01-15T02:34:09;97190.41;;;14.11;63.52
60820;BME280;46641;48.904;9.126;2023-01-15T02:39:05;97186.34;;;14.15;63.63
60820;BME280;46641;48.904;9.126;2023-01-15T02:43:58;97204.56;;;14.16;63.68
60820;BME280;46641;48.904;9.126;2023-01-15T02:48:52;97209.81;;;14.16;63.67
60820;BME280;46641;48.904;9.126;2023-01-15T02:53:45;97187.78;;;14.17;63.90
60820;BME280;46641;48.904;9.126;2023-01-15T02:58:39;97198.09;;;14.19;63.52
60820;BME280;46641;48.904;9.126;2023-01-15T03:08:33;97179.66;;;14.19;63.66
60820;BME280;46641;48.904;9.126;2023-01-15T03:13:45;97174.63;;;14.17;63.64
60820;BME280;46641;48.904;9.126;2023-01-15T03:23:52;97146.47;;;14.18;63.66
60820;BME280;46641;48.904;9.126;2023-01-15T03:28:45;97158.00;;;14.23;63.51
60820;BME280;46641;48.904;9.126;2023-01-15T03:33:37;97148.69;;;14.21;63.78
60820;BME280;46641;48.904;9.126;2023-01-15T03:38:36;97141.41;;;14.23;64.02
60820;BME280;46641;48.904;9.126;2023-01-15T03:43:40;97145.44;;;14.25;63.64
60820;BME280;46641;48.904;9.126;2023-01-15T03:48:34;97146.88;;;14.28;63.38
60820;BME280;46641;48.904;9.126;2023-01-15T03:53:39;97148.06;;;14.25;63.73
60820;BME280;46641;48.904;9.126;2023-01-15T03:58:36;97144.22;;;14.28;63.67
60820;BME280;46641;48.904;9.126;2023-01-15T04:03:29;97144.22;;;14.28;63.55
60820;BME280;46641;48.904;9.126;2023-01-15T04:08:22;97123.19;;;14.28;63.42
60820;BME280;46641;48.904;9.126;2023-01-15T04:13:13;97120.56;;;14.28;63.45
60820;BME280;46641;48.904;9.126;2023-01-15T04:18:03;97127.41;;;14.29;63.29
60820;BME280;46641;48.904;9.126;2023-01-15T04:22:53;97114.47;;;14.27;63.72
60820;BME280;46641;48.904;9.126;2023-01-15T04:27:44;97113.69;;;14.27;63.50
60820;BME280;46641;48.904;9.126;2023-01-15T04:32:34;97102.94;;;14.29;63.60
60820;BME280;46641;48.904;9.126;2023-01-15T04:37:24;97099.69;;;14.33;63.37
60820;BME280;46641;48.904;9.126;2023-01-15T04:42:15;97099.09;;;14.31;63.50
60820;BME280;46641;48.904;9.126;2023-01-15T04:47:24;97104.34;;;14.31;63.59
60820;BME280;46641;48.904;9.126;2023-01-15T04:52:14;97111.03;;;14.34;63.67
60820;BME280;46641;48.904;9.126;2023-01-15T04:57:05;97118.31;;;14.32;63.32
60820;BME280;46641;48.904;9.126;2023-01-15T05:01:55;97187.94;;;14.36;63.40
60820;BME280;46641;48.904;9.126;2023-01-15T05:06:46;97225.19;;;14.26;63.67
60820;BME280;46641;48.904;9.126;2023-01-15T05:11:38;97221.75;;;14.19;63.83
60820;BME280;46641;48.904;9.126;2023-01-15T05:16:28;97225.59;;;14.16;63.58
60820;BME280;46641;48.904;9.126;2023-01-15T05:21:22;97231.25;;;14.07;63.80
60820;BME280;46641;48.904;9.126;2023-01-15T05:26:13;97238.16;;;14.08;63.93
60820;BME280;46641;48.904;9.126;2023-01-15T05:31:08;97258.59;;;14.12;63.60
60820;BME280;46641;48.904;9.126;2023-01-15T05:36:07;97259.81;;;14.10;63.43
60820;BME280;46641;48.904;9.126;2023-01-15T05:40:58;97271.56;;;14.07;62.98
60820;BME280;46641;48.904;9.126;2023-01-15T05:45:51;97271.34;;;14.02;63.43
60820;BME280;46641;48.904;9.126;2023-01-15T05:50:42;97271.75;;;14.06;63.27
60820;BME280;46641;48.904;9.126;2023-01-15T05:55:32;97287.94;;;14.09;62.98
60820;BME280;46641;48.904;9.126;2023-01-15T06:00:23;97295.66;;;14.11;63.03
60820;BME280;46641;48.904;9.126;2023-01-15T06:05:16;97278.44;;;14.08;62.90
60820;BME280;46641;48.904;9.126;2023-01-15T06:10:09;97286.72;;;14.05;63.24
60820;BME280;46641;48.904;9.126;2023-01-15T06:14:59;97301.06;;;14.02;63.10
60820;BME280;46641;48.904;9.126;2023-01-15T06:19:49;97305.31;;;13.97;62.92
60820;BME280;46641;48.904;9.126;2023-01-15T06:24:40;97325.13;;;13.93;62.94
60820;BME280;46641;48.904;9.126;2023-01-15T06:29:30;97333.63;;;13.88;62.96
60820;BME280;46641;48.904;9.126;2023-01-15T06:34:20;97336.81;;;13.77;62.70
60820;BME280;46641;48.904;9.126;2023-01-15T06:39:11;97369.53;;;13.68;62.34
60820;BME280;46641;48.904;9.126;2023-01-15T06:44:01;97378.81;;;13.64;62.95
60820;BME280;46641;48.904;9.126;2023-01-15T06:49:10;97376.81;;;13.66;63.00
60820;BME280;46641;48.904;9.126;2023-01-15T06:54:00;97398.03;;;13.64;62.80
60820;BME280;46641;48.904;9.126;2023-01-15T06:58:51;97414.41;;;13.60;62.13
60820;BME280;46641;48.904;9.126;2023-01-15T07:03:41;97431.56;;;13.55;61.95
60820;BME280;46641;48.904;9.126;2023-01-15T07:08:31;97456.38;;;13.46;62.07
60820;BME280;46641;48.904;9.126;2023-01-15T07:13:22;97464.28;;;13.46;62.20
60820;BME280;46641;48.904;9.126;2023-01-15T07:18:12;97486.28;;;13.45;61.08
60820;BME280;46641;48.904;9.126;2023-01-15T07:23:02;97468.84;;;13.38;62.08
60820;BME280;46641;48.904;9.126;2023-01-15T07:27:53;97484.63;;;13.38;62.56
60820;BME280;46641;48.904;9.126;2023-01-15T07:32:43;97477.91;;;13.35;62.68
60820;BME280;46641;48.904;9.126;2023-01-15T07:37:33;97491.06;;;13.35;62.40
60820;BME280;46641;48.904;9.126;2023-01-15T07:42:24;97501.56;;;13.35;62.32
60820;BME280;46641;48.904;9.126;2023-01-15T07:47:33;97486.00;;;13.33;62.19
60820;BME280;46641;48.904;9.126;2023-01-15T07:52:42;97490.84;;;13.30;62.31
60820;BME280;46641;48.904;9.126;2023-01-15T07:57:32;97516.31;;;13.29;62.52
60820;BME280;46641;48.904;9.126;2023-01-15T08:02:22;97522.53;;;13.28;62.02
60820;BME280;46641;48.904;9.126;2023-01-15T08:07:14;97519.66;;;13.23;62.34
60820;BME280;46641;48.904;9.126;2023-01-15T08:12:05;97531.13;;;13.22;62.44
60820;BME280;46641;48.904;9.126;2023-01-15T08:17:14;97559.22;;;13.22;62.64
60820;BME280;46641;48.904;9.126;2023-01-15T08:22:04;97560.25;;;13.21;62.59
60820;BME280;46641;48.904;9.126;2023-01-15T08:26:55;97557.63;;;13.21;63.07
60820;BME280;46641;48.904;9.126;2023-01-15T08:31:45;97570.13;;;13.19;62.24
60820;BME280;46641;48.904;9.126;2023-01-15T08:36:35;97589.00;;;13.07;62.14
60820;BME280;46641;48.904;9.126;2023-01-15T08:41:26;97584.56;;;13.08;61.49
60820;BME280;46641;48.904;9.126;2023-01-15T08:46:16;97595.00;;;13.01;62.33
60820;BME280;46641;48.904;9.126;2023-01-15T08:51:08;97605.13;;;13.04;61.79
60820;BME280;46641;48.904;9.126;2023-01-15T08:55:59;97611.13;;;12.98;61.42
60820;BME280;46641;48.904;9.126;2023-01-15T09:00:49;97639.38;;;12.96;62.37
60820;BME280;46641;48.904;9.126;2023-01-15T09:05:40;97626.81;;;12.92;61.07
60820;BME280;46641;48.904;9.126;2023-01-15T09:10:30;97636.88;;;12.88;61.54
60820;BME280;46641;48.904;9.126;2023-01-15T09:15:20;97653.44;;;12.89;61.93
60820;BME280;46641;48.904;9.126;2023-01-15T09:20:12;97654.00;;;12.84;61.39
60820;BME280;46641;48.904;9.126;2023-01-15T09:25:03;97655.34;;;12.80;62.50
60820;BME280;46641;48.904;9.126;2023-01-15T09:29:54;97664.41;;;12.77;62.44
60820;BME280;46641;48.904;9.126;2023-01-15T09:34:44;97708.41;;;12.75;61.58
60820;BME280;46641;48.904;9.126;2023-01-15T09:39:36;97693.84;;;12.73;62.36
60820;BME280;46641;48.904;9.126;2023-01-15T09:59:48;97720.00;;;12.66;62.15
60820;BME280;46641;48.904;9.126;2023-01-15T10:04:42;97733.31;;;12.65;61.78
60820;BME280;46641;48.904;9.126;2023-01-15T10:09:38;97746.44;;;12.65;60.96
60820;BME280;46641;48.904;9.126;2023-01-15T14:25:30;97921.72;;;12.00;65.82
60820;BME280;46641;48.904;9.126;2023-01-15T14:35:23;97909.22;;;12.02;66.03
60820;BME280;46641;48.904;9.126;2023-01-15T14:40:21;97907.25;;;12.04;65.74
60820;BME280;46641;48.904;9.126;2023-01-15T14:50:29;97898.59;;;12.04;65.89
60820;BME280;46641;48.904;9.126;2023-01-15T14:55:22;97906.25;;;12.05;66.33
60820;BME280;46641;48.904;9.126;2023-01-15T15:00:16;97915.13;;;12.04;66.14
60820;BME280;46641;48.904;9.126;2023-01-15T15:05:13;97910.69;;;12.05;66.39
60820;BME280;46641;48.904;9.126;2023-01-15T15:10:12;97930.88;;;12.04;65.97
60820;BME280;46641;48.904;9.126;2023-01-15T15:20:46;97949.22;;;12.04;66.14
60820;BME280;46641;48.904;9.126;2023-01-15T15:25:29;97957.09;;;12.04;66.36
60820;BME280;46641;48.904;9.126;2023-01-15T15:30:22;97950.84;;;12.05;66.95
60820;BME280;46641;48.904;9.126;2023-01-15T15:35:24;97953.47;;;12.05;66.15
60820;BME280;46641;48.904;9.126;2023-01-15T15:40:18;97952.03;;;12.03;66.67
60820;BME280;46641;48.904;9.126;2023-01-15T15:45:26;97944.16;;;12.03;66.39
60820;BME280;46641;48.904;9.126;2023-01-15T15:50:36;97921.72;;;12.00;66.99
60820;BME280;46641;48.904;9.126;2023-01-15T15:55:36;97916.63;;;11.99;66.67
60820;BME280;46641;48.904;9.126;2023-01-15T16:00:33;97906.97;;;11.99;66.60
60820;BME280;46641;48.904;9.126;2023-01-15T16:05:26;97902.69;;;11.98;67.01
60820;BME280;46641;48.904;9.126;2023-01-15T16:10:31;97901.06;;;11.97;66.52
60820;BME280;46641;48.904;9.126;2023-01-15T16:15:24;97909.28;;;11.94;67.09
60820;BME280;46641;48.904;9.126;2023-01-15T16:20:19;97904.19;;;11.92;67.23
60820;BME280;46641;48.904;9.126;2023-01-15T16:25:21;97903.38;;;11.92;66.60
60820;BME280;46641;48.904;9.126;2023-01-15T16:30:13;97902.91;;;11.88;67.08
60820;BME280;46641;48.904;9.126;2023-01-15T16:35:12;97909.81;;;11.89;67.28
60820;BME280;46641;48.904;9.126;2023-01-15T16:40:04;97901.94;;;11.89;67.14
60820;BME280;46641;48.904;9.126;2023-01-15T16:44:57;97900.63;;;11.85;67.18
60820;BME280;46641;48.904;9.126;2023-01-15T16:49:50;97899.97;;;11.83;66.99
60820;BME280;46641;48.904;9.126;2023-01-15T16:54:41;97900.13;;;11.82;67.18
60820;BME280;46641;48.904;9.126;2023-01-15T17:09:15;97885.72;;;11.78;67.42
60820;BME280;46641;48.904;9.126;2023-01-15T17:14:09;97884.25;;;11.75;67.30
60820;BME280;46641;48.904;9.126;2023-01-15T17:19:04;97882.63;;;11.74;67.29
60820;BME280;46641;48.904;9.126;2023-01-15T17:23:56;97868.88;;;11.72;67.39
60820;BME280;46641;48.904;9.126;2023-01-15T17:28:49;97869.19;;;11.69;67.45
60820;BME280;46641;48.904;9.126;2023-01-15T17:33:39;97858.91;;;11.67;67.30
60820;BME280;46641;48.904;9.126;2023-01-15T17:38:29;97864.16;;;11.67;67.26
60820;BME280;46641;48.904;9.126;2023-01-15T17:43:19;97866.91;;;11.66;67.44
60820;BME280;46641;48.904;9.126;2023-01-15T17:48:10;97855.63;;;11.65;67.53
60820;BME280;46641;48.904;9.126;2023-01-15T17:53:03;97848.09;;;11.62;67.22
60820;BME280;46641;48.904;9.126;2023-01-15T17:57:54;97843.84;;;11.61;67.66
60820;BME280;46641;48.904;9.126;2023-01-15T18:03:03;97838.94;;;11.58;67.30
60820;BME280;46641;48.904;9.126;2023-01-15T18:08:11;97835.69;;;11.56;67.49
60820;BME280;46641;48.904;9.126;2023-01-15T18:13:02;97821.75;;;11.56;67.17
60820;BME280;46641;48.904;9.126;2023-01-15T18:17:53;97826.53;;;11.52;67.37
60820;BME280;46641;48.904;9.126;2023-01-15T18:22:43;97811.47;;;11.46;67.62
60820;BME280;46641;48.904;9.126;2023-01-15T18:27:33;97816.72;;;11.46;67.63
60820;BME280;46641;48.904;9.126;2023-01-15T18:32:28;97803.63;;;11.46;67.45
60820;BME280;46641;48.904;9.126;2023-01-15T18:37:19;97798.56;;;11.44;67.57
60820;BME280;46641;48.904;9.126;2023-01-15T18:42:09;97793.81;;;11.40;67.88
60820;BME280;46641;48.904;9.126;2023-01-15T18:47:02;97794.81;;;11.39;67.68
60820;BME280;46641;48.904;9.126;2023-01-15T18:51:53;97806.28;;;11.38;67.30
60820;BME280;46641;48.904;9.126;2023-01-15T18:57:02;97817.72;;;11.37;67.70
60820;BME280;46641;48.904;9.126;2023-01-15T19:01:53;97806.63;;;11.35;67.97
60820;BME280;46641;48.904;9.126;2023-01-15T19:06:45;97794.69;;;11.32;67.79
60820;BME280;46641;48.904;9.126;2023-01-15T19:11:36;97793.22;;;11.30;67.93
60820;BME280;46641;48.904;9.126;2023-01-15T19:16:26;97763.72;;;11.28;67.87
60820;BME280;46641;48.904;9.126;2023-01-15T19:21:35;97754.44;;;11.25;68.09
60820;BME280;46641;48.904;9.126;2023-01-15T19:26:26;97748.53;;;11.23;67.79
60820;BME280;46641;48.904;9.126;2023-01-15T19:31:16;97744.13;;;11.23;67.97
60820;BME280;46641;48.904;9.126;2023-01-15T19:36:25;97751.16;;;11.23;67.71
60820;BME280;46641;48.904;9.126;2023-01-15T19:41:16;97748.38;;;11.25;68.01
60820;BME280;46641;48.904;9.126;2023-01-15T19:46:25;97748.53;;;11.23;67.69
60820;BME280;46641;48.904;9.126;2023-01-15T19:51:34;97747.06;;;11.20;68.29
60820;BME280;46641;48.904;9.126;2023-01-15T19:56:43;97738.59;;;11.18;67.84
60820;BME280;46641;48.904;9.126;2023-01-15T20:01:33;97737.13;;;11.16;68.06
60820;BME280;46641;48.904;9.126;2023-01-15T20:06:23;97717.78;;;11.17;68.04
60820;BME280;46641;48.904;9.126;2023-01-15T20:11:14;97721.41;;;11.16;68.12
60820;BME280;46641;48.904;9.126;2023-01-15T20:16:06;97716.31;;;11.14;67.97
60820;BME280;46641;48.904;9.126;2023-01-15T20:20:57;97707.84;;;11.12;67.92
60820;BME280;46641;48.904;9.126;2023-01-15T20:25:47;97708.66;;;11.13;67.79
60820;BME280;46641;48.904;9.126;2023-01-15T20:30:40;97697.69;;;11.09;68.03
60820;BME280;46641;48.904;9.126;2023-01-15T20:35:31;97684.75;;;11.08;68.16
60820;BME280;46641;48.904;9.126;2023-01-15T20:40:22;97686.75;;;11.06;68.41
60820;BME280;46641;48.904;9.126;2023-01-15T20:45:15;97687.56;;;11.06;67.95
60820;BME280;46641;48.904;9.126;2023-01-15T20:50:07;97675.47;;;11.05;67.99
60820;BME280;46641;48.904;9.126;2023-01-15T20:54:58;97685.59;;;11.08;67.65
60820;BME280;46641;48.904;9.126;2023-01-15T20:59:48;97671.03;;;11.06;68.08
60820;BME280;46641;48.904;9.126;2023-01-15T21:04:39;97661.72;;;11.03;67.75
60820;BME280;46641;48.904;9.126;2023-01-15T21:09:30;97656.50;;;11.03;67.91
60820;BME280;46641;48.904;9.126;2023-01-15T21:14:20;97644.41;;;11.02;68.00
60820;BME280;46641;48.904;9.126;2023-01-15T21:19:11;97641.78;;;11.02;67.67
60820;BME280;46641;48.904;9.126;2023-01-15T21:24:01;97640.13;;;11.01;67.89
60820;BME280;46641;48.904;9.126;2023-01-15T21:28:52;97615.13;;;10.98;67.88
60820;BME280;46641;48.904;9.126;2023-01-15T21:33:43;97615.28;;;10.97;68.00
60820;BME280;46641;48.904;9.126;2023-01-15T21:38:33;97615.28;;;10.97;67.82
60820;BME280;46641;48.904;9.126;2023-01-15T21:43:24;97631.00;;;10.97;67.81
60820;BME280;46641;48.904;9.126;2023-01-15T21:48:32;97636.22;;;10.97;67.61
60820;BME280;46641;48.904;9.126;2023-01-15T21:53:23;97634.59;;;10.96;67.83
60820;BME280;46641;48.904;9.126;2023-01-15T21:58:13;97636.56;;;10.94;67.63
60820;BME280;46641;48.904;9.126;2023-01-15T22:03:03;97626.91;;;10.94;67.59
60820;BME280;46641;48.904;9.126;2023-01-15T22:07:54;97609.72;;;10.92;67.73
60820;BME280;46641;48.904;9.126;2023-01-15T22:12:45;97601.41;;;10.88;67.72
60820;BME280;46641;48.904;9.126;2023-01-15T22:17:35;97602.25;;;10.89;68.02
60820;BME280;46641;48.904;9.126;2023-01-15T22:22:25;97600.59;;;10.88;67.82
60820;BME280;46641;48.904;9.126;2023-01-15T22:27:21;97580.81;;;10.85;67.75
60820;BME280;46641;48.904;9.126;2023-01-15T22:32:12;97574.75;;;10.85;67.57
60820;BME280;46641;48.904;9.126;2023-01-15T22:37:05;97562.88;;;10.82;67.93
60820;BME280;46641;48.904;9.126;2023-01-15T22:41:55;97542.06;;;10.81;68.05
60820;BME280;46641;48.904;9.126;2023-01-15T22:47:05;97538.00;;;10.78;68.14
60820;BME280;46641;48.904;9.126;2023-01-15T22:51:55;97535.56;;;10.76;68.30
60820;BME280;46641;48.904;9.126;2023-01-15T22:56:46;97514.97;;;10.73;68.25
60820;BME280;46641;48.904;9.126;2023-01-15T23:01:37;97498.47;;;10.73;68.26
60820;BME280;46641;48.904;9.126;2023-01-15T23:06:28;97490.78;;;10.71;68.30
60820;BME280;46641;48.904;9.126;2023-01-15T23:11:18;97491.09;;;10.68;68.28
60820;BME280;46641;48.904;9.126;2023-01-15T23:16:09;97497.16;;;10.69;68.22
60820;BME280;46641;48.904;9.126;2023-01-15T23:21:04;97492.75;;;10.69;68.36
60820;BME280;46641;48.904;9.126;2023-01-15T23:25:54;97494.72;;;10.67;68.49
60820;BME280;46641;48.904;9.126;2023-01-15T23:30:44;97488.69;;;10.67;68.36
60820;BME280;46641;48.904;9.126;2023-01-15T23:35:35;97490.50;;;10.66;68.23
60820;BME280;46641;48.904;9.126;2023-01-15T23:40:25;97478.22;;;10.67;68.20
60820;BME280;46641;48.904;9.126;2023-01-15T23:45:16;97473.31;;;10.64;68.17
60820;BME280;46641;48.904;9.126;2023-01-15T23:50:24;97466.28;;;10.64;68.23
60820;BME280;46641;48.904;9.126;2023-01-15T23:55:15;97462.22;;;10.62;68.33
